Time,TemperatureF,DewpointF,PressureIn,WindDirection,WindDirectionDegrees,WindSpeedMPH,WindSpeedGustMPH,Humidity,HourlyPrecipIn,Conditions,Clouds,dailyrainin,SoftwareType,DateUTC
2013-10-11 07:26:00,53.0,50.7,30.05,ESE,115,3.0,3.0,92,0.00,,,0.00,Wunderground v.1.15,2013-10-11 12:26:00,
2013-10-11 07:31:00,53.1,51.1,30.06,ESE,123,4.0,5.0,93,0.00,,,0.00,Wunderground v.1.15,2013-10-11 12:31:00,
2013-10-11 07:36:00,53.5,51.5,30.06,ESE,116,4.0,7.0,93,0.00,,,0.00,Wunderground v.1.15,2013-10-11 12:36:00,
2013-10-11 07:41:00,53.7,51.4,30.06,ESE,118,5.0,7.0,92,0.00,,,0.00,Wunderground v.1.15,2013-10-11 12:41:00,
2013-10-11 07:46:00,53.9,51.6,30.06,SE,129,5.0,5.0,92,0.00,,,0.00,Wunderground v.1.15,2013-10-11 12:46:00,
2013-10-11 07:56:00,54.2,51.6,30.06,SE,126,6.0,6.0,91,0.00,,,0.00,Wunderground v.1.15,2013-10-11 12:56:00,
2013-10-11 08:06:00,54.8,52.2,30.06,SE,126,6.0,7.0,91,0.00,,,0.00,Wunderground v.1.15,2013-10-11 13:06:00,
2013-10-11 08:11:00,55.1,52.2,30.06,SE,127,6.0,6.0,90,0.00,,,0.00,Wunderground v.1.15,2013-10-11 13:11:00,
2013-10-11 08:16:00,55.4,52.5,30.05,ESE,123,6.0,6.0,90,0.00,,,0.00,Wunderground v.1.15,2013-10-11 13:16:00,
2013-10-11 08:21:00,55.8,52.9,30.05,SE,134,6.0,6.0,90,0.00,,,0.00,Wunderground v.1.15,2013-10-11 13:21:00,
2013-10-11 08:26:00,56.3,53.4,30.05,SE,146,6.0,7.0,90,0.00,,,0.00,Wunderground v.1.15,2013-10-11 13:26:00,
2013-10-11 08:36:00,57.8,54.3,30.05,SE,135,6.0,9.0,88,0.00,,,0.00,Wunderground v.1.15,2013-10-11 13:36:00,
2013-10-11 08:46:00,59.3,54.8,30.05,SE,142,7.0,9.0,85,0.00,,,0.00,Wunderground v.1.15,2013-10-11 13:46:00,
2013-10-11 08:56:00,60.5,55.6,30.05,SSE,148,7.0,9.0,84,0.00,,,0.00,Wunderground v.1.15,2013-10-11 13:56:00,
2013-10-11 09:06:00,61.6,55.7,30.05,SE,140,7.0,8.0,81,0.00,,,0.00,Wunderground v.1.15,2013-10-11 14:06:00,
2013-10-11 09:16:00,62.9,55.9,30.05,SSE,148,8.0,9.0,78,0.00,,,0.00,Wunderground v.1.15,2013-10-11 14:16:00,
2013-10-11 09:21:00,63.5,56.5,30.05,SSE,152,8.0,8.0,78,0.00,,,0.00,Wunderground v.1.15,2013-10-11 14:21:00,
2013-10-11 09:26:00,64.2,56.5,30.05,SSE,161,7.0,9.0,76,0.00,,,0.00,Wunderground v.1.15,2013-10-11 14:26:00,
2013-10-11 09:36:00,65.5,56.6,30.05,South,181,7.0,7.0,73,0.00,,,0.00,Wunderground v.1.15,2013-10-11 14:36:00,
2013-10-11 09:46:00,66.8,57.5,30.05,South,177,6.0,12.0,72,0.00,,,0.00,Wunderground v.1.15,2013-10-11 14:46:00,
2013-10-11 09:51:00,67.3,57.2,30.05,SSE,157,5.0,7.0,70,0.00,,,0.00,Wunderground v.1.15,2013-10-11 14:51:00,
2013-10-11 10:01:00,67.9,57.4,30.05,South,169,6.0,7.0,69,0.00,,,0.00,Wunderground v.1.15,2013-10-11 15:01:00,
2013-10-11 10:11:00,68.9,57.9,30.05,SE,144,7.0,7.0,68,0.00,,,0.00,Wunderground v.1.15,2013-10-11 15:11:00,
2013-10-11 10:16:00,69.4,58.0,30.05,South,171,7.0,7.0,67,0.00,,,0.00,Wunderground v.1.15,2013-10-11 15:16:00,
2013-10-11 10:26:00,70.6,58.3,30.05,SSE,166,6.0,8.0,65,0.00,,,0.00,Wunderground v.1.15,2013-10-11 15:26:00,
2013-10-11 10:36:00,71.6,57.9,30.04,South,182,6.0,6.0,62,0.00,,,0.00,Wunderground v.1.15,2013-10-11 15:36:00,
2013-10-11 10:46:00,71.9,57.7,30.04,SSE,166,6.0,6.0,61,0.00,,,0.00,Wunderground v.1.15,2013-10-11 15:46:00,
2013-10-11 10:51:00,72.4,57.3,30.04,SSE,165,6.0,9.0,59,0.00,,,0.00,Wunderground v.1.15,2013-10-11 15:51:00,
2013-10-11 11:01:00,72.8,57.2,30.04,South,188,8.0,8.0,58,0.00,,,0.00,Wunderground v.1.15,2013-10-11 16:01:00,
2013-10-11 11:11:00,73.4,57.2,30.04,SSW,205,7.0,7.0,57,0.00,,,0.00,Wunderground v.1.15,2013-10-11 16:11:00,
2013-10-11 11:16:00,73.2,57.5,30.03,South,190,7.0,7.0,58,0.00,,,0.00,Wunderground v.1.15,2013-10-11 16:16:00,
2013-10-11 11:26:00,73.2,57.1,30.03,SSW,197,8.0,8.0,57,0.00,,,0.00,Wunderground v.1.15,2013-10-11 16:26:00,
2013-10-11 11:31:00,73.1,57.4,30.03,SSW,193,8.0,8.0,58,0.00,,,0.00,Wunderground v.1.15,2013-10-11 16:31:00,
2013-10-11 11:41:00,73.5,58.3,30.03,South,190,8.0,8.0,59,0.00,,,0.00,Wunderground v.1.15,2013-10-11 16:41:00,
2013-10-11 11:51:00,74.4,57.2,30.03,SSE,153,7.0,11.0,55,0.00,,,0.00,Wunderground v.1.15,2013-10-11 16:51:00,
2013-10-11 12:01:00,74.6,57.4,30.03,SSE,147,8.0,11.0,55,0.00,,,0.00,Wunderground v.1.15,2013-10-11 17:01:00,
2013-10-11 12:11:00,74.8,57.0,30.02,SSE,161,9.0,9.0,54,0.00,,,0.00,Wunderground v.1.15,2013-10-11 17:11:00,
2013-10-11 12:21:00,74.4,56.2,30.01,SE,126,7.0,8.0,53,0.00,,,0.00,Wunderground v.1.15,2013-10-11 17:21:00,
2013-10-11 12:26:00,74.8,57.0,30.01,SSE,153,7.0,9.0,54,0.00,,,0.00,Wunderground v.1.15,2013-10-11 17:26:00,
2013-10-11 12:36:00,74.8,56.0,30.01,SE,136,9.0,18.0,52,0.00,,,0.00,Wunderground v.1.15,2013-10-11 17:36:00,
2013-10-11 12:46:00,74.7,56.4,30.00,SE,130,12.0,15.0,53,0.00,,,0.00,Wunderground v.1.15,2013-10-11 17:46:00,
2013-10-11 12:56:00,75.3,55.9,30.00,SE,144,10.0,14.0,51,0.00,,,0.00,Wunderground v.1.15,2013-10-11 17:56:00,
2013-10-11 13:06:00,75.7,56.3,29.99,ESE,121,11.0,11.0,51,0.00,,,0.00,Wunderground v.1.15,2013-10-11 18:06:00,
2013-10-11 13:16:00,75.8,56.4,29.99,SSE,155,11.0,12.0,51,0.00,,,0.00,Wunderground v.1.15,2013-10-11 18:16:00,
2013-10-11 13:26:00,76.1,56.1,29.98,SSE,160,11.0,11.0,50,0.00,,,0.00,Wunderground v.1.15,2013-10-11 18:26:00,
2013-10-11 13:36:00,76.4,56.4,29.98,SE,143,10.0,11.0,50,0.00,,,0.00,Wunderground v.1.15,2013-10-11 18:36:00,
2013-10-11 13:41:00,76.1,56.1,29.98,ESE,120,10.0,11.0,50,0.00,,,0.00,Wunderground v.1.15,2013-10-11 18:41:00,
2013-10-11 13:51:00,76.2,56.2,29.97,South,176,7.0,8.0,50,0.00,,,0.00,Wunderground v.1.15,2013-10-11 18:51:00,
2013-10-11 14:01:00,76.5,55.3,29.97,SSE,153,10.0,10.0,48,0.00,,,0.00,Wunderground v.1.15,2013-10-11 19:01:00,
2013-10-11 14:11:00,77.3,54.9,29.97,South,171,7.0,7.0,46,0.00,,,0.00,Wunderground v.1.15,2013-10-11 19:11:00,
2013-10-11 14:21:00,77.2,55.4,29.96,SE,136,6.0,12.0,47,0.00,,,0.00,Wunderground v.1.15,2013-10-11 19:21:00,
2013-10-11 14:31:00,76.6,56.0,29.96,SE,135,10.0,10.0,49,0.00,,,0.00,Wunderground v.1.15,2013-10-11 19:31:00,
2013-10-11 14:36:00,77.1,55.3,29.96,South,183,9.0,10.0,47,0.00,,,0.00,Wunderground v.1.15,2013-10-11 19:36:00,
2013-10-11 14:46:00,76.9,55.7,29.96,SSE,156,7.0,12.0,48,0.00,,,0.00,Wunderground v.1.15,2013-10-11 19:46:00,
2013-10-11 14:56:00,77.7,55.3,29.95,SSE,157,11.0,11.0,46,0.00,,,0.00,Wunderground v.1.15,2013-10-11 19:56:00,
2013-10-11 15:01:00,77.8,55.4,29.95,South,186,10.0,10.0,46,0.00,,,0.00,Wunderground v.1.15,2013-10-11 20:01:00,
2013-10-11 15:11:00,77.6,55.2,29.95,SSE,153,8.0,13.0,46,0.00,,,0.00,Wunderground v.1.15,2013-10-11 20:11:00,
2013-10-11 15:16:00,77.3,55.5,29.95,SSE,161,10.0,13.0,47,0.00,,,0.00,Wunderground v.1.15,2013-10-11 20:16:00,
2013-10-11 15:21:00,77.3,55.5,29.95,SSE,159,11.0,12.0,47,0.00,,,0.00,Wunderground v.1.15,2013-10-11 20:21:00,
2013-10-11 15:31:00,77.2,56.0,29.95,South,190,10.0,10.0,48,0.00,,,0.00,Wunderground v.1.15,2013-10-11 20:31:00,
2013-10-11 15:41:00,77.2,54.8,29.94,SE,128,9.0,9.0,46,0.00,,,0.00,Wunderground v.1.15,2013-10-11 20:41:00,
2013-10-11 15:51:00,77.6,55.2,29.94,SSE,162,10.0,10.0,46,0.00,,,0.00,Wunderground v.1.15,2013-10-11 20:51:00,
2013-10-11 16:01:00,77.3,55.5,29.94,SE,146,9.0,12.0,47,0.00,,,0.00,Wunderground v.1.15,2013-10-11 21:01:00,
2013-10-11 16:11:00,77.1,54.7,29.94,SE,130,12.0,12.0,46,0.00,,,0.00,Wunderground v.1.15,2013-10-11 21:11:00,
2013-10-11 16:21:00,77.5,55.7,29.94,SSE,159,9.0,11.0,47,0.00,,,0.00,Wunderground v.1.15,2013-10-11 21:21:00,
2013-10-11 16:31:00,76.9,54.5,29.94,SE,139,12.0,14.0,46,0.00,,,0.00,Wunderground v.1.15,2013-10-11 21:31:00,